Time;durP1;ratioP1;P1;durP2;ratioP2;P2;SDS_P1;SDS_P2;PMS_P1;PMS_P2;Temp;Humidity;BMP_temperature;BMP_pressure;BME280_temperature;BME280_humidity;BME280_pressure;Samples;Min_cycle;Max_cycle;Signal;HPM_P1;HPM_P2
2023/12/23 00:00:42;;;;;;;0.30;0.30;;;;;;;9.93;100.00;74845.44;6269201;23;20007;-88
2023/12/23 00:03:20;;;;;;;0.20;0.20;;;;;;;9.94;100.00;74846.63;6242943;22;20024;-86
2023/12/23 00:06:01;;;;;;;0.20;0.20;;;;;;;9.83;100.00;74832.91;6245273;23;20000;-88
2023/12/23 00:08:33;;;;;;;0.20;0.20;;;;;;;9.96;100.00;74849.03;6241871;23;20011;-87
2023/12/23 00:14:20;;;;;;;0.20;0.20;;;;;;;10.01;100.00;74854.38;6271021;23;20005;-87
2023/12/23 00:17:22;;;;;;;0.30;0.30;;;;;;;10.02;100.00;74855.59;6269587;23;19988;-87
2023/12/23 00:20:03;;;;;;;0.20;0.20;;;;;;;10.02;100.00;74855.00;6247202;22;20003;-88
2023/12/23 00:23:07;;;;;;;0.20;0.20;;;;;;;9.98;100.00;74851.41;6272540;22;20030;-87
2023/12/23 00:25:58;;;;;;;0.20;0.20;;;;;;;10.02;100.00;74860.53;6247782;22;19988;-85
2023/12/23 00:28:25;;;;;;;0.20;0.20;;;;;;;10.00;100.00;74847.06;6243717;22;20411;-86
2023/12/23 00:30:52;;;;;;;0.30;0.30;;;;;;;10.14;100.00;74869.91;6240247;23;20008;-87
2023/12/23 00:33:52;;;;;;;0.20;0.20;;;;;;;10.33;100.00;74894.78;6242529;23;20046;-87
2023/12/23 00:36:24;;;;;;;0.20;0.20;;;;;;;10.00;100.00;74852.59;6242267;23;20011;-87
2023/12/23 00:38:55;;;;;;;0.20;0.20;;;;;;;10.10;100.00;74864.53;6243177;23;20001;-88
2023/12/23 00:42:12;;;;;;;0.20;0.20;;;;;;;10.21;100.00;74877.69;6173138;23;20015;-87
2023/12/23 00:45:06;;;;;;;0.30;0.30;;;;;;;9.84;100.00;74839.63;6267561;23;19988;-86
2023/12/23 00:48:16;;;;;;;0.30;0.30;;;;;;;10.00;100.00;74852.59;6249403;22;20007;-87
2023/12/23 00:50:49;;;;;;;0.20;0.20;;;;;;;10.22;100.00;74879.47;6265346;23;19992;-87
2023/12/23 00:53:26;;;;;;;0.30;0.30;;;;;;;10.10;100.00;74864.53;6267328;22;20012;-86
2023/12/23 00:59:04;;;;;;;0.30;0.30;;;;;;;10.21;100.00;74872.75;6266200;23;20015;-87
2023/12/23 01:02:23;;;;;;;0.30;0.30;;;;;;;10.39;100.00;74898.63;6246563;23;20048;-87
2023/12/23 01:05:23;;;;;;;0.30;0.30;;;;;;;10.34;100.00;74893.25;6273945;23;19998;-88
2023/12/23 01:08:16;;;;;;;0.20;0.20;;;;;;;10.28;100.00;74888.84;6242316;23;20059;-88
2023/12/23 01:10:45;;;;;;;0.30;0.30;;;;;;;9.91;100.00;74848.59;6231646;23;20012;-88
2023/12/23 01:13:14;;;;;;;0.20;0.20;;;;;;;10.29;100.00;74884.50;6199863;23;20064;-87
2023/12/23 01:15:40;;;;;;;0.30;0.30;;;;;;;10.07;100.00;74864.34;6208185;23;20104;-87
2023/12/23 01:18:09;;;;;;;0.30;0.30;;;;;;;10.05;100.00;74859.16;6232105;23;20020;-87
2023/12/23 01:20:38;;;;;;;0.30;0.30;;;;;;;10.36;100.00;74898.38;6182768;23;20009;-87
2023/12/23 01:23:04;;;;;;;0.30;0.30;;;;;;;10.19;100.00;74878.06;6236633;23;20009;-85
2023/12/23 01:25:44;;;;;;;0.30;0.30;;;;;;;10.03;100.00;74850.66;6215776;23;20032;-87
2023/12/23 01:28:42;;;;;;;0.20;0.20;;;;;;;10.26;100.00;74883.69;6238382;23;20027;-88
2023/12/23 01:32:04;;;;;;;0.20;0.20;;;;;;;10.00;100.00;74852.59;6222767;23;20028;-87
2023/12/23 01:35:20;;;;;;;0.20;0.20;;;;;;;9.96;100.00;74853.97;6271851;23;20014;-87
2023/12/23 01:38:11;;;;;;;0.30;0.30;;;;;;;9.91;100.00;74842.47;6265605;23;20024;-87
2023/12/23 01:41:17;;;;;;;0.20;0.20;;;;;;;10.33;100.00;74894.78;6218711;23;20004;-87
2023/12/23 01:44:06;;;;;;;0.28;0.28;;;;;;;10.23;100.00;74880.09;6245047;23;20011;-87
2023/12/23 01:47:01;;;;;;;0.20;0.20;;;;;;;10.19;100.00;74875.91;6268531;23;20012;-87
2023/12/23 01:49:53;;;;;;;0.30;0.30;;;;;;;10.34;100.00;74890.47;6245061;22;20078;-88
2023/12/23 01:52:21;;;;;;;0.25;0.25;;;;;;;10.20;100.00;74876.50;6232347;23;20004;-86
2023/12/23 01:54:50;;;;;;;0.30;0.30;;;;;;;10.19;100.00;74875.31;6239987;23;20008;-86
2023/12/23 01:57:26;;;;;;;0.30;0.30;;;;;;;10.04;100.00;74857.38;6240746;23;19992;-86
2023/12/23 02:00:35;;;;;;;0.30;0.30;;;;;;;10.38;100.00;74902.94;6248077;22;20012;-87
2023/12/23 02:03:14;;;;;;;0.20;0.20;;;;;;;10.28;100.00;74886.09;6266697;22;20000;-87
2023/12/23 02:06:27;;;;;;;0.30;0.30;;;;;;;10.16;100.00;74871.72;6269261;22;20016;-88
2023/12/23 02:09:19;;;;;;;0.30;0.30;;;;;;;9.93;100.00;74842.69;6241449;22;19993;-88
2023/12/23 02:15:47;;;;;;;0.30;0.30;;;;;;;10.21;100.00;74877.69;6241905;22;20020;-86
2023/12/23 02:18:56;;;;;;;0.30;0.30;;;;;;;10.16;100.00;74871.72;6192990;23;20008;-87
2023/12/23 02:22:04;;;;;;;0.20;0.20;;;;;;;10.16;100.00;74871.72;6241813;22;20053;-87
2023/12/23 02:25:09;;;;;;;0.20;0.20;;;;;;;10.14;100.00;74869.34;6216814;23;20080;-88
2023/12/23 02:28:08;;;;;;;0.30;0.30;;;;;;;9.89;100.00;74840.06;6205171;23;20035;-87
2023/12/23 02:31:00;;;;;;;0.22;0.22;;;;;;;9.89;100.00;74835.13;6162075;23;20025;-87
2023/12/23 02:33:54;;;;;;;0.30;0.30;;;;;;;9.92;100.00;74844.25;6206351;23;20036;-87
2023/12/23 02:36:44;;;;;;;0.20;0.20;;;;;;;9.80;100.00;74835.44;6204553;23;20061;-88
2023/12/23 02:39:57;;;;;;;0.20;0.20;;;;;;;10.14;100.00;74867.16;6197524;23;20083;-88
2023/12/23 02:43:04;;;;;;;0.20;0.20;;;;;;;10.16;100.00;74868.94;6213523;23;20008;-86
2023/12/23 02:45:36;;;;;;;0.30;0.30;;;;;;;10.20;100.00;74876.50;6180188;23;20063;-87
2023/12/23 02:48:07;;;;;;;0.20;0.20;;;;;;;10.06;100.00;74859.75;6205663;23;20001;-86
2023/12/23 02:50:34;;;;;;;0.20;0.20;;;;;;;10.07;100.00;74861.56;6205597;23;20009;-86
2023/12/23 02:53:01;;;;;;;0.30;0.30;;;;;;;10.02;100.00;74857.75;6196298;23;20016;-86
2023/12/23 02:55:27;;;;;;;0.20;0.20;;;;;;;9.81;100.00;74830.53;6181059;23;20004;-86
2023/12/23 02:57:53;;;;;;;0.20;0.20;;;;;;;10.16;100.00;74868.94;6206787;23;20341;-87
2023/12/23 03:00:19;;;;;;;0.20;0.20;;;;;;;10.09;100.00;74866.13;6206296;23;20005;-87
2023/12/23 03:03:13;;;;;;;0.20;0.20;;;;;;;10.18;100.00;74879.63;6189134;23;19997;-85
2023/12/23 03:05:41;;;;;;;0.20;0.20;;;;;;;10.18;100.00;74874.72;6208984;23;20005;-87
2023/12/23 03:08:15;;;;;;;0.28;0.28;;;;;;;9.90;100.00;74841.84;6210192;23;20441;-87
2023/12/23 03:11:04;;;;;;;0.30;0.30;;;;;;;9.87;100.00;74841.03;6237652;23;20067;-87
2023/12/23 03:13:31;;;;;;;0.30;0.30;;;;;;;10.22;100.00;74878.88;6212852;23;20468;-86
2023/12/23 03:16:22;;;;;;;0.20;0.20;;;;;;;10.25;100.00;74882.50;6191961;23;19997;-86
2023/12/23 03:18:52;;;;;;;0.20;0.20;;;;;;;10.19;100.00;74878.06;6212054;23;20012;-87
2023/12/23 03:21:22;;;;;;;0.30;0.30;;;;;;;10.25;100.00;74885.25;6185369;23;20028;-86
2023/12/23 03:27:10;;;;;;;0.20;0.20;;;;;;;10.34;100.00;74893.25;6243773;23;20027;-87
2023/12/23 03:33:42;;;;;;;0.30;0.30;;;;;;;10.32;100.00;74890.84;6242792;23;20051;-87
2023/12/23 03:36:13;;;;;;;0.25;0.25;;;;;;;10.55;100.00;74922.66;6231544;23;20021;-87
2023/12/23 03:38:39;;;;;;;0.20;0.20;;;;;;;10.55;100.00;74917.13;6209596;23;20034;-87
2023/12/23 03:41:25;;;;;;;0.20;0.20;;;;;;;10.34;100.00;74893.25;6211285;23;20004;-88
2023/12/23 03:44:02;;;;;;;0.30;0.30;;;;;;;10.56;100.00;74924.47;6218004;23;20039;-88
2023/12/23 03:46:31;;;;;;;0.20;0.20;;;;;;;10.56;100.00;74921.09;6236421;23;20008;-87
2023/12/23 03:48:58;;;;;;;0.30;0.30;;;;;;;10.46;100.00;74904.22;6207979;23;20011;-87
2023/12/23 03:51:26;;;;;;;0.20;0.20;;;;;;;10.48;100.00;74909.94;6206695;23;20005;-87
2023/12/23 03:53:52;;;;;;;0.20;0.20;;;;;;;10.48;100.00;74907.19;6207905;23;20056;-88
2023/12/23 03:56:22;;;;;;;0.20;0.20;;;;;;;10.51;100.00;74912.94;6211059;23;20078;-85
2023/12/23 03:59:19;;;;;;;0.30;0.30;;;;;;;10.53;100.00;74909.22;6216298;23;20064;-89
2023/12/23 04:01:45;;;;;;;0.30;0.30;;;;;;;10.32;100.00;74890.84;6240351;23;20012;-87
2023/12/23 04:04:12;;;;;;;0.20;0.20;;;;;;;10.45;100.00;74909.16;6211029;23;20005;-86
2023/12/23 04:06:44;;;;;;;0.30;0.30;;;;;;;10.27;100.00;74882.09;6211058;23;20004;-87
2023/12/23 04:09:33;;;;;;;0.20;0.20;;;;;;;10.40;100.00;74903.16;6213999;23;19985;-87
2023/12/23 04:12:00;;;;;;;0.20;0.20;;;;;;;10.06;100.00;74862.53;6208779;23;20116;-87
2023/12/23 04:15:08;;;;;;;0.20;0.20;;;;;;;10.30;100.00;74891.22;6211430;23;20012;-87
2023/12/23 04:17:43;;;;;;;0.30;0.30;;;;;;;9.83;100.00;74835.66;6174936;23;20039;-87
2023/12/23 04:20:38;;;;;;;0.20;0.20;;;;;;;10.21;100.00;74874.91;6236953;23;20107;-86
2023/12/23 04:24:04;;;;;;;0.20;0.20;;;;;;;10.22;100.00;74878.88;6242982;23;19996;-87
2023/12/23 04:27:04;;;;;;;0.20;0.20;;;;;;;9.98;100.00;74854.16;6236407;23;20035;-87
2023/12/23 04:29:48;;;;;;;0.20;0.20;;;;;;;10.10;100.00;74864.53;6240944;23;20019;-86
2023/12/23 04:32:15;;;;;;;0.20;0.20;;;;;;;9.97;100.00;74849.63;6209337;23;20012;-85
2023/12/23 04:35:03;;;;;;;0.20;0.20;;;;;;;10.15;100.00;74870.53;6214209;23;20024;-87
2023/12/23 04:38:16;;;;;;;0.20;0.20;;;;;;;10.08;100.00;74862.16;6242408;23;20024;-86
2023/12/23 04:40:44;;;;;;;0.30;0.30;;;;;;;10.07;100.00;74858.81;6240026;23;20019;-87
2023/12/23 04:43:17;;;;;;;0.30;0.30;;;;;;;10.08;100.00;74862.16;6208341;23;20013;-86
2023/12/23 04:57:50;;;;;;;0.20;0.20;;;;;;;10.34;100.00;74893.25;6249710;22;20030;-86
2023/12/23 05:00:39;;;;;;;0.30;0.30;;;;;;;10.33;100.00;74891.44;6210104;23;20142;-87
2023/12/23 05:03:06;;;;;;;0.30;0.30;;;;;;;10.28;100.00;74883.31;6235979;23;20004;-87
2023/12/23 05:05:40;;;;;;;0.20;0.20;;;;;;;10.21;100.00;74877.69;6234874;23;20072;-86
2023/12/23 05:11:53;;;;;;;0.20;0.20;;;;;;;10.34;100.00;74890.47;6242461;23;20063;-86
2023/12/23 05:17:00;;;;;;;0.30;0.30;;;;;;;10.24;100.00;74884.06;6235197;22;20020;-85
2023/12/23 05:19:30;;;;;;;0.20;0.20;;;;;;;10.15;100.00;74865.59;6210232;23;20005;-87
2023/12/23 05:21:57;;;;;;;0.30;0.30;;;;;;;10.25;100.00;74882.50;6209395;23;20000;-86
2023/12/23 05:24:25;;;;;;;0.20;0.20;;;;;;;10.38;100.00;74900.19;6211468;23;20035;-87
2023/12/23 05:30:24;;;;;;;0.20;0.20;;;;;;;10.29;100.00;74887.28;6213092;23;20024;-87
2023/12/23 05:36:19;;;;;;;0.30;0.30;;;;;;;10.21;100.00;74872.16;6212442;23;20032;-87
2023/12/23 05:39:03;;;;;;;0.30;0.30;;;;;;;9.98;100.00;74848.66;6179879;23;20012;-87
2023/12/23 05:41:29;;;;;;;0.20;0.20;;;;;;;10.21;100.00;74877.69;6180387;23;20001;-87
2023/12/23 05:43:56;;;;;;;0.20;0.20;;;;;;;9.88;100.00;74842.22;6180431;23;20535;-87
2023/12/23 05:46:24;;;;;;;0.25;0.25;;;;;;;10.09;100.00;74863.94;6180945;23;20004;-87
2023/12/23 05:48:53;;;;;;;0.20;0.20;;;;;;;10.21;100.00;74874.91;6206555;23;20005;-87
2023/12/23 05:51:21;;;;;;;0.20;0.20;;;;;;;9.99;100.00;74854.78;6205967;23;20035;-87
2023/12/23 05:53:47;;;;;;;0.20;0.20;;;;;;;10.02;100.00;74858.38;6177756;23;20005;-87
2023/12/23 05:56:16;;;;;;;0.20;0.20;;;;;;;10.03;100.00;74856.19;6180502;23;20012;-89
2023/12/23 05:58:43;;;;;;;0.30;0.30;;;;;;;10.13;100.00;74868.13;6180805;23;20034;-86
2023/12/23 06:04:44;;;;;;;0.30;0.30;;;;;;;9.93;100.00;74844.84;6034473;23;20053;-89
2023/12/23 06:07:14;;;;;;;0.20;0.20;;;;;;;10.12;100.00;74866.94;6041051;23;20015;-87
2023/12/23 06:09:40;;;;;;;0.20;0.20;;;;;;;9.95;100.00;74847.81;6057997;23;20007;-86
2023/12/23 06:12:07;;;;;;;0.20;0.20;;;;;;;10.21;100.00;74877.69;6030295;23;20076;-87
2023/12/23 06:14:33;;;;;;;0.30;0.30;;;;;;;9.90;100.00;74847.38;6028966;23;20098;-85
2023/12/23 06:16:59;;;;;;;0.30;0.30;;;;;;;10.10;100.00;74865.13;6046709;23;19998;-85
2023/12/23 06:19:28;;;;;;;0.20;0.20;;;;;;;10.05;100.00;74853.03;6134884;23;20021;-87
2023/12/23 06:21:53;;;;;;;0.30;0.30;;;;;;;10.21;100.00;74877.69;6147928;23;20006;-85
2023/12/23 06:24:29;;;;;;;0.20;0.20;;;;;;;10.18;100.00;74874.72;6151542;23;20054;-87
2023/12/23 06:27:14;;;;;;;0.20;0.20;;;;;;;10.10;100.00;74870.66;6132995;23;20065;-87
2023/12/23 06:29:40;;;;;;;0.20;0.20;;;;;;;9.95;100.00;74847.81;6131649;23;20426;-85
2023/12/23 06:32:07;;;;;;;0.20;0.20;;;;;;;10.17;100.00;74875.66;6122673;23;20017;-84
2023/12/23 06:34:56;;;;;;;0.30;0.30;;;;;;;10.23;100.00;74880.09;6153219;23;20001;-84
2023/12/23 06:37:23;;;;;;;0.30;0.30;;;;;;;10.01;100.00;74854.38;6146784;23;20097;-86
2023/12/23 06:39:50;;;;;;;0.20;0.20;;;;;;;10.18;100.00;74868.59;6145778;23;20012;-86
2023/12/23 06:42:28;;;;;;;0.30;0.30;;;;;;;10.41;100.00;74901.59;6148561;23;20002;-87
2023/12/23 06:45:06;;;;;;;0.25;0.25;;;;;;;10.45;100.00;74905.78;6172141;23;20093;-85
2023/12/23 06:47:37;;;;;;;0.20;0.20;;;;;;;10.54;100.00;74916.53;6141672;23;20005;-85
2023/12/23 06:50:15;;;;;;;0.20;0.20;;;;;;;10.58;100.00;74920.72;6150728;23;19997;-87
2023/12/23 06:53:14;;;;;;;0.30;0.30;;;;;;;10.37;100.00;74896.81;6175475;23;20005;-87
2023/12/23 06:55:44;;;;;;;0.20;0.20;;;;;;;10.31;100.00;74889.06;6161707;23;20005;-85
2023/12/23 06:58:24;;;;;;;0.20;0.20;;;;;;;10.72;100.00;74940.22;6151801;23;19990;-86
2023/12/23 07:01:19;;;;;;;0.30;0.30;;;;;;;10.74;100.00;74939.81;6154082;23;20085;-86
2023/12/23 07:04:17;;;;;;;0.20;0.20;;;;;;;11.50;100.00;75028.88;6153358;23;20032;-85
2023/12/23 07:06:48;;;;;;;0.20;0.20;;;;;;;11.76;100.00;75059.34;6176434;23;20016;-86
2023/12/23 07:09:15;;;;;;;0.20;0.20;;;;;;;12.09;100.00;75098.25;6146675;23;20005;-85
2023/12/23 07:11:41;;;;;;;0.20;0.20;;;;;;;12.84;100.00;75186.19;6145858;23;20005;-86
2023/12/23 07:14:08;;;;;;;0.20;0.20;;;;;;;12.95;100.00;75199.34;6168604;23;19997;-85
2023/12/23 07:16:41;;;;;;;0.30;0.30;;;;;;;12.81;100.00;75183.19;6179848;23;20060;-85
2023/12/23 07:19:08;;;;;;;;;;;;;;;13.53;100.00;75264.19;6204927;23;20009;-85
2023/12/23 07:21:38;;;;;;;0.20;0.20;;;;;;;13.79;100.00;75303.66;6182769;23;19972;-86
2023/12/23 07:24:07;;;;;;;0.20;0.20;;;;;;;14.21;100.00;75344.44;6183391;23;20036;-84
2023/12/23 07:26:41;;;;;;;0.20;0.20;;;;;;;14.24;98.56;75344.66;6176094;23;20020;-86
2023/12/23 07:29:07;;;;;;;0.20;0.20;;;;;;;14.70;98.74;75404.75;6179741;23;20013;-86
2023/12/23 07:31:35;;;;;;;0.30;0.30;;;;;;;14.87;95.81;75418.94;6181910;23;20045;-85
2023/12/23 07:34:15;;;;;;;0.20;0.20;;;;;;;15.67;92.69;75516.44;6180810;23;20040;-84
2023/12/23 07:40:16;;;;;;;0.30;0.30;;;;;;;16.05;87.85;75558.00;6211406;23;20048;-84
2023/12/23 07:46:08;;;;;;;0.20;0.20;;;;;;;16.41;83.33;75605.56;6211668;23;20071;-84
2023/12/23 07:52:04;;;;;;;0.20;0.20;;;;;;;16.32;83.06;75589.19;6210770;23;20040;-85
2023/12/23 07:54:40;;;;;;;0.20;0.20;;;;;;;15.88;85.24;75537.63;6200829;23;20009;-83
2023/12/23 07:57:15;;;;;;;0.20;0.20;;;;;;;16.42;83.05;75601.78;6192281;23;20065;-83
2023/12/23 07:59:56;;;;;;;0.20;0.20;;;;;;;16.44;80.27;75606.97;6203969;23;20042;-85
2023/12/23 08:02:54;;;;;;;0.20;0.20;;;;;;;16.59;82.77;75620.97;6180350;23;20064;-83
2023/12/23 08:06:09;;;;;;;0.20;0.20;;;;;;;17.45;79.06;75722.38;6176414;23;20015;-86
2023/12/23 08:08:50;;;;;;;0.20;0.20;;;;;;;16.85;78.32;75651.59;6187396;23;20040;-84
2023/12/23 08:14:46;;;;;;;0.20;0.20;;;;;;;17.64;74.77;75753.56;6214924;23;20004;-84
2023/12/23 08:28:44;;;;;;;0.20;0.20;;;;;;;18.30;71.97;75823.25;6183711;23;20009;-83
2023/12/23 08:51:45;;;;;;;0.20;0.20;;;;;;;18.68;69.98;75867.69;6265033;22;20023;-81
2023/12/23 08:55:10;;;;;;;0.20;0.20;;;;;;;18.42;69.32;75837.03;6228870;22;20007;-83
2023/12/23 08:57:58;;;;;;;0.20;0.20;;;;;;;17.87;70.63;75766.03;6275184;22;20006;-85
2023/12/23 09:00:37;;;;;;;0.20;0.20;;;;;;;17.53;72.28;75737.59;6243269;22;20055;-86
2023/12/23 09:03:22;;;;;;;0.20;0.20;;;;;;;17.42;74.57;75718.78;6245563;22;20003;-87
2023/12/23 09:06:17;;;;;;;0.20;0.20;;;;;;;17.52;75.00;75733.56;6191306;22;19993;-86
2023/12/23 09:08:54;;;;;;;0.20;0.20;;;;;;;17.36;75.99;75712.16;6270143;22;19999;-86
2023/12/23 09:17:56;;;;;;;0.20;0.20;;;;;;;18.44;70.80;75841.66;6214007;23;20027;-87
2023/12/23 09:20:35;;;;;;;0.20;0.20;;;;;;;18.27;70.09;75819.06;6150484;23;20022;-86
2023/12/23 09:23:30;;;;;;;0.20;0.20;;;;;;;18.35;70.65;75828.03;6190727;23;20028;-86
2023/12/23 09:26:25;;;;;;;0.20;0.20;;;;;;;18.13;71.44;75800.03;6146618;23;19989;-87
2023/12/23 09:29:16;;;;;;;0.20;0.20;;;;;;;18.04;72.20;75792.03;6212763;23;20001;-87
2023/12/23 09:32:23;;;;;;;0.20;0.20;;;;;;;18.14;69.39;75803.44;6212811;23;20044;-87
2023/12/23 09:34:56;;;;;;;0.20;0.20;;;;;;;17.36;72.25;75711.56;6210764;23;20000;-86
2023/12/23 09:38:04;;;;;;;0.20;0.20;;;;;;;18.02;71.67;75792.44;6184788;23;20047;-85
2023/12/23 09:46:36;;;;;;;0.20;0.20;;;;;;;16.92;71.27;75660.56;6237791;22;20019;-85
2023/12/23 09:49:01;;;;;;;0.20;0.20;;;;;;;17.09;69.66;75683.16;6271422;22;19984;-84
2023/12/23 09:51:36;;;;;;;0.20;0.20;;;;;;;17.26;68.12;75700.78;6272555;22;20008;-86
2023/12/23 09:54:04;;;;;;;0.20;0.20;;;;;;;17.16;69.03;75690.97;6271023;22;20063;-86
2023/12/23 09:56:37;;;;;;;0.20;0.20;;;;;;;17.72;68.15;75754.81;6269582;22;20015;-85
2023/12/23 09:59:07;;;;;;;0.20;0.20;;;;;;;17.62;68.36;75742.78;6273696;22;20356;-86
2023/12/23 10:02:17;;;;;;;0.20;0.20;;;;;;;18.07;65.34;75790.03;6250688;22;19994;-87
2023/12/23 10:29:09;;;;;;;0.20;0.20;;;;;;;18.55;62.71;75852.66;6265769;23;20046;-84
2023/12/23 10:31:41;;;;;;;0.20;0.20;;;;;;;18.16;62.88;75805.81;6244131;23;20011;-86
2023/12/23 10:34:20;;;;;;;0.20;0.20;;;;;;;18.45;61.89;75837.25;6258041;23;19992;-85
2023/12/23 10:36:55;;;;;;;0.20;0.20;;;;;;;18.23;61.46;75814.84;6242407;23;20038;-85
2023/12/23 10:39:31;;;;;;;0.20;0.20;;;;;;;17.90;62.83;75775.22;6268377;23;20008;-86
2023/12/23 10:42:43;;;;;;;0.20;0.20;;;;;;;18.50;61.18;75843.25;6246154;22;20015;-86
2023/12/23 10:54:06;;;;;;;0.20;0.20;;;;;;;19.27;58.74;75937.38;6212894;23;20036;-85
2023/12/23 10:57:07;;;;;;;0.20;0.20;;;;;;;18.70;59.22;75869.50;6181909;23;20073;-85
2023/12/23 10:59:54;;;;;;;0.22;0.22;;;;;;;18.48;60.98;75844.28;6178115;23;20000;-85
2023/12/23 11:02:47;;;;;;;0.30;0.30;;;;;;;18.21;60.73;75812.44;6187324;22;20025;-84
2023/12/23 11:05:37;;;;;;;0.20;0.20;;;;;;;18.40;61.45;75834.66;6212602;23;19997;-86
2023/12/23 11:08:26;;;;;;;0.20;0.20;;;;;;;18.40;60.10;75828.44;6203683;23;20009;-85
2023/12/23 11:10:58;;;;;;;0.20;0.20;;;;;;;18.59;60.23;75856.88;6212037;23;20361;-84
2023/12/23 11:13:48;;;;;;;0.20;0.20;;;;;;;18.42;61.31;75842.66;6209328;23;20049;-84
2023/12/23 11:16:45;;;;;;;0.20;0.20;;;;;;;18.56;58.94;75853.88;6215336;23;19995;-84
2023/12/23 11:20:06;;;;;;;0.20;0.20;;;;;;;18.79;59.29;75877.50;6214728;23;20061;-86
2023/12/23 11:25:38;;;;;;;0.20;0.20;;;;;;;17.65;63.13;75745.78;6180031;23;20022;-85
2023/12/23 11:28:22;;;;;;;0.20;0.20;;;;;;;17.73;63.03;75756.00;6180948;23;20001;-84
2023/12/23 11:31:20;;;;;;;0.20;0.20;;;;;;;17.19;65.60;75692.38;6182322;23;20037;-85
2023/12/23 11:33:46;;;;;;;0.20;0.20;;;;;;;17.66;64.29;75749.78;6119438;23;20006;-86
2023/12/23 11:36:22;;;;;;;0.20;0.20;;;;;;;17.09;66.18;75683.16;6097087;23;20058;-85
2023/12/23 11:39:00;;;;;;;0.20;0.20;;;;;;;17.06;66.49;75679.56;6112840;23;20021;-85
2023/12/23 11:41:28;;;;;;;0.20;0.20;;;;;;;17.36;66.19;75711.56;6073446;23;20010;-84
2023/12/23 11:44:30;;;;;;;0.20;0.20;;;;;;;17.88;64.60;75778.41;6122417;23;19994;-85
2023/12/23 12:03:01;;;;;;;0.20;0.20;;;;;;;18.73;61.52;75868.09;6233215;22;20034;-85
2023/12/23 12:06:25;;;;;;;0.20;0.20;;;;;;;18.50;62.08;75846.06;6231201;22;20044;-85
2023/12/23 12:10:02;;;;;;;0.20;0.20;;;;;;;18.05;64.41;75793.22;6217387;22;20032;-85
2023/12/23 12:12:37;;;;;;;0.20;0.20;;;;;;;18.03;63.77;75790.81;6212245;23;19988;-84
2023/12/23 12:18:04;;;;;;;0.20;0.20;;;;;;;17.75;66.01;75755.03;6222976;22;20769;-84
2023/12/23 12:24:10;;;;;;;0.20;0.20;;;;;;;18.55;63.49;75852.06;6245367;22;20008;-85
2023/12/23 12:26:52;;;;;;;0.20;0.20;;;;;;;17.99;63.94;75786.00;6200979;22;20027;-85
2023/12/23 12:30:14;;;;;;;0.20;0.20;;;;;;;18.90;63.06;75893.53;6253303;22;20008;-85
2023/12/23 12:32:50;;;;;;;0.20;0.20;;;;;;;18.05;63.59;75793.22;6273685;22;20016;-86
2023/12/23 12:35:41;;;;;;;0.20;0.20;;;;;;;17.88;60.76;75772.81;6209408;23;20016;-86
2023/12/23 12:38:51;;;;;;;0.20;0.20;;;;;;;18.05;59.79;75793.22;6212494;23;20077;-85
2023/12/23 12:41:43;;;;;;;0.25;0.25;;;;;;;17.73;66.41;75749.81;6176927;23;19988;-85
2023/12/23 12:44:22;;;;;;;0.20;0.20;;;;;;;17.64;69.42;75745.19;6270043;22;20012;-85
2023/12/23 12:46:54;;;;;;;0.20;0.20;;;;;;;17.42;68.04;75718.78;6217271;23;20012;-85
2023/12/23 12:49:32;;;;;;;0.20;0.20;;;;;;;17.55;69.06;75739.97;6240790;23;20003;-85
2023/12/23 12:52:39;;;;;;;0.20;0.20;;;;;;;17.50;73.25;75728.38;6272409;22;20035;-84
2023/12/23 12:55:17;;;;;;;0.20;0.20;;;;;;;17.23;71.40;75693.78;6268152;23;20019;-85
2023/12/23 12:57:49;;;;;;;0.20;0.20;;;;;;;16.98;71.77;75664.97;6240166;23;19996;-85
2023/12/23 13:00:19;;;;;;;0.20;0.20;;;;;;;16.94;73.01;75665.19;6268947;23;20001;-84
2023/12/23 13:02:48;;;;;;;0.20;0.20;;;;;;;17.46;70.70;75723.56;6242713;23;20008;-85
2023/12/23 13:05:13;;;;;;;0.20;0.20;;;;;;;17.58;70.80;75737.38;6239831;22;20004;-84
2023/12/23 13:08:17;;;;;;;0.20;0.20;;;;;;;17.45;70.83;75722.38;6266754;23;19994;-86
2023/12/23 13:11:11;;;;;;;0.20;0.20;;;;;;;17.53;70.95;75726.41;6272944;22;20036;-87
2023/12/23 13:13:44;;;;;;;0.20;0.20;;;;;;;16.89;72.10;75656.38;6267833;23;20015;-86
2023/12/23 13:16:13;;;;;;;0.22;0.22;;;;;;;16.95;72.11;75663.59;6240236;23;20008;-85
2023/12/23 13:19:11;;;;;;;0.20;0.20;;;;;;;16.77;73.25;75648.75;6270508;22;19995;-86
2023/12/23 13:22:06;;;;;;;0.20;0.20;;;;;;;16.87;73.15;75654.56;6272968;23;20048;-86
2023/12/23 13:24:57;;;;;;;0.20;0.20;;;;;;;17.09;73.97;75682.56;6270916;23;20041;-86
2023/12/23 13:27:26;;;;;;;0.20;0.20;;;;;;;17.17;75.53;75692.19;6259919;23;20008;-86
2023/12/23 13:29:53;;;;;;;0.20;0.20;;;;;;;16.70;76.37;75631.97;6267041;22;20020;-85
2023/12/23 13:32:21;;;;;;;0.20;0.20;;;;;;;17.14;75.34;75686.38;6264619;23;20659;-85
2023/12/23 13:34:48;;;;;;;0.20;0.20;;;;;;;16.95;77.04;75663.59;6262850;23;20390;-85
2023/12/23 13:37:21;;;;;;;0.22;0.22;;;;;;;17.39;76.51;75715.78;6266002;23;20004;-85
2023/12/23 13:39:48;;;;;;;;;;;;;;;17.05;77.74;75672.78;6263311;23;20004;-85
2023/12/23 13:42:15;;;;;;;0.20;0.20;;;;;;;17.01;79.45;75668.00;6266841;23;19951;-86
2023/12/23 13:44:43;;;;;;;0.20;0.20;;;;;;;16.92;79.23;75659.97;6265757;23;19999;-86
2023/12/23 13:47:14;;;;;;;0.20;0.20;;;;;;;16.55;82.03;75610.59;6264189;23;20008;-85
2023/12/23 13:49:58;;;;;;;0.20;0.20;;;;;;;16.91;80.20;75664.38;6268624;23;19996;-86
2023/12/23 13:53:06;;;;;;;0.20;0.20;;;;;;;16.65;80.50;75628.16;6270857;22;20008;-87
2023/12/23 13:55:33;;;;;;;0.20;0.20;;;;;;;16.76;80.99;75635.78;6263508;23;20076;-86
2023/12/23 13:58:09;;;;;;;0.20;0.20;;;;;;;16.72;82.01;75633.78;6262815;23;20008;-85
2023/12/23 14:00:40;;;;;;;0.20;0.20;;;;;;;16.47;83.08;75609.97;6263617;23;19999;-83
2023/12/23 14:03:05;;;;;;;0.20;0.20;;;;;;;16.58;82.53;75622.56;6262323;23;20008;-82
2023/12/23 14:05:38;;;;;;;0.20;0.20;;;;;;;16.36;82.71;75596.78;6260632;23;20137;-86
2023/12/23 14:08:10;;;;;;;0.20;0.20;;;;;;;16.48;82.68;75608.38;6238267;23;19999;-86
2023/12/23 14:10:37;;;;;;;0.20;0.20;;;;;;;16.69;82.14;75632.97;6264383;22;20440;-86
2023/12/23 14:13:06;;;;;;;0.20;0.20;;;;;;;16.47;81.87;75609.97;6261653;23;20007;-86
2023/12/23 14:15:32;;;;;;;0.20;0.20;;;;;;;16.30;82.37;75587.41;6233919;23;20018;-85
2023/12/23 14:18:07;;;;;;;0.20;0.20;;;;;;;16.17;81.53;75572.38;6260355;23;20000;-86
2023/12/23 14:20:52;;;;;;;0.20;0.20;;;;;;;16.13;82.30;75572.56;6265495;23;20015;-84
2023/12/23 14:23:18;;;;;;;0.28;0.28;;;;;;;16.19;81.35;75572.00;6261528;23;20004;-85
2023/12/23 14:25:45;;;;;;;0.30;0.30;;;;;;;16.11;82.16;75561.81;6260076;23;20008;-85
2023/12/23 14:28:11;;;;;;;0.20;0.20;;;;;;;15.84;83.78;75536.22;6261011;23;20000;-85
2023/12/23 14:30:39;;;;;;;0.20;0.20;;;;;;;15.97;84.08;75545.63;6237882;23;20061;-85
2023/12/23 14:33:09;;;;;;;0.20;0.20;;;;;;;15.83;84.60;75529.44;6266876;23;20004;-86
2023/12/23 14:35:36;;;;;;;0.20;0.20;;;;;;;16.02;84.64;75554.41;6242493;23;20001;-85
2023/12/23 14:38:13;;;;;;;0.20;0.20;;;;;;;16.06;85.41;75556.41;6266517;23;20011;-86
2023/12/23 14:41:22;;;;;;;0.20;0.20;;;;;;;15.68;87.18;75514.25;6272185;22;20034;-85
2023/12/23 14:43:53;;;;;;;0.20;0.20;;;;;;;15.58;88.11;75502.84;6272518;23;20027;-87
2023/12/23 14:46:46;;;;;;;0.20;0.20;;;;;;;15.48;88.04;75487.47;6271428;23;20007;-85
2023/12/23 14:49:26;;;;;;;0.20;0.20;;;;;;;15.51;89.40;75494.44;6274399;22;20015;-85
2023/12/23 14:52:54;;;;;;;0.20;0.20;;;;;;;15.18;91.31;75453.31;6266062;22;19991;-86
2023/12/23 14:55:33;;;;;;;0.20;0.20;;;;;;;15.05;94.52;75440.50;6270027;22;20031;-85
2023/12/23 14:58:14;;;;;;;0.20;0.20;;;;;;;14.95;95.48;75428.53;6273499;23;20019;-86
2023/12/23 15:00:44;;;;;;;0.20;0.20;;;;;;;15.13;94.80;75452.88;6273895;22;20016;-86
2023/12/23 15:03:55;;;;;;;0.20;0.20;;;;;;;14.90;93.13;75422.53;6174527;23;20008;-86
2023/12/23 15:06:36;;;;;;;0.20;0.20;;;;;;;14.72;94.98;75406.53;6270960;23;20048;-86
2023/12/23 15:09:04;;;;;;;0.20;0.20;;;;;;;14.86;95.53;75418.34;6267191;22;20011;-86
2023/12/23 15:11:42;;;;;;;0.20;0.20;;;;;;;14.82;95.24;75412.97;6271969;23;20048;-86
2023/12/23 15:14:32;;;;;;;0.20;0.20;;;;;;;14.77;96.14;75406.97;6270832;23;20031;-87